Nearby METAR Reports

 

KSLE - Salem, Oregon, USA
Distance from station: NE 1mi, 2km
Updated: Tue, 25-Jan-2022 2:56pm PST
Clear
Clear
 Wind from N
Wind: N 10 mph , 17 km/h
Temperature: 50°F , 10°C
Wind Chill: 46°F , 8°C
Dew Point: 36°F , 2°C
Humidity: 58%
Barometer: 30.20 inHg , 1022.7 hPa
Clouds: Clear
Visibility: 10 miles , 16 km
2022/01/25 22:56 KSLE 252256Z 01009KT 10SM CLR 10/02 A3020 RMK AO2 SLP226 T01000017
KMMV - Mcminnville, Oregon, USA
Distance from station: NNW 22mi, 36km
Updated: Tue, 25-Jan-2022 2:53pm PST
Clear
Clear
 Wind from N
Wind: N 7 mph , 11 km/h
Temperature: 54°F , 12°C
Dew Point: 36°F , 2°C
Humidity: 51%
Barometer: 30.20 inHg , 1022.7 hPa
Clouds: Clear
Visibility: 10 miles , 16 km
2022/01/25 22:53 KMMV 252253Z AUTO 01006KT 10SM CLR 12/02 A3020 RMK AO2 SLP227 T01170017
 
KUAO - Aurora, Oregon, USA
Distance from station: NNE 28mi, 45km
Updated: Tue, 25-Jan-2022 2:53pm PST
Clear
Clear
 Wind from NNW
Wind: NNW 8 mph , 13 km/h
Temperature: 52°F , 11°C
Dew Point: 30°F , -1°C
Humidity: 44%
Barometer: 30.21 inHg , 1023 hPa
Clouds: Clear
Visibility: 10 miles , 16 km
2022/01/25 22:53 KUAO 252253Z 34007KT 10SM CLR 11/M01 A3021 RMK AO2 SLP232 T01061006
KCVO - Corvallis Muni A, Oregon, USA
Distance from station: SSW 29mi, 47km
Updated: Tue, 25-Jan-2022 2:56pm PST
Clear
Clear
 Wind from calm
Wind: Calm
Temperature: 46°F , 8°C
Dew Point: 37°F , 3°C
Humidity: 71%
Barometer: 30.21 inHg , 1023 hPa
Clouds: Clear
Visibility: 10 miles , 16 km
2022/01/25 22:56 KCVO 252256Z AUTO 00000KT 10SM CLR 08/03 A3021 RMK AO2 SLP233 T00830028
 
KHIO - Hillsboro/Portld, Oregon, USA
Distance from station: N 46mi, 74km
Updated: Tue, 25-Jan-2022 2:53pm PST
Clear
Clear
 Wind from NE
Wind: NE 5 mph , 7 km/h
Temperature: 52°F , 11°C
Dew Point: 32°F , 0°C
Humidity: 47%
Barometer: 30.22 inHg , 1023.4 hPa
Clouds: Clear
Visibility: 10 miles , 16 km
2022/01/25 22:53 KHIO 252253Z 05004KT 10SM CLR 11/00 A3022 RMK AO2 SLP234 T01060000